createdAt,value
2018-04-30T00:00:00.769Z,28.40
2018-04-30T00:02:29.051Z,19.50
2018-04-30T00:04:57.354Z,19.23
2018-04-30T00:07:25.655Z,26.97
2018-04-30T00:09:53.223Z,19.80
2018-04-30T00:12:20.811Z,12.17
2018-04-30T00:14:48.333Z,17.23
2018-04-30T00:17:15.843Z,15.17
2018-04-30T00:19:43.364Z,19.10
2018-04-30T00:22:10.938Z,20.83
2018-04-30T00:24:38.480Z,23.67
2018-04-30T00:27:05.990Z,27.30
2018-04-30T00:29:33.516Z,28.93
2018-04-30T00:32:01.062Z,32.93
2018-04-30T00:34:29.352Z,30.13
2018-04-30T00:36:57.619Z,29.27
2018-04-30T00:39:25.199Z,33.30
2018-04-30T00:41:53.661Z,32.83
2018-04-30T00:44:21.217Z,31.63
2018-04-30T00:46:48.767Z,29.50
2018-04-30T00:49:16.293Z,37.43
2018-04-30T00:51:43.802Z,32.97
2018-04-30T00:54:11.473Z,30.93
2018-04-30T00:56:39.029Z,32.67
2018-04-30T00:59:07.322Z,25.97
2018-04-30T01:01:35.596Z,23.63
2018-04-30T01:04:03.132Z,26.80
2018-04-30T01:06:30.640Z,27.20
2018-04-30T01:08:58.160Z,28.60
2018-04-30T01:11:25.659Z,30.70
2018-04-30T01:13:53.175Z,30.63
2018-04-30T01:16:21.442Z,26.90
2018-04-30T01:18:49.736Z,30.33
2018-04-30T01:21:18.009Z,20.90
2018-04-30T01:23:45.537Z,31.07
2018-04-30T01:26:13.055Z,26.37
2018-04-30T01:28:40.577Z,26.67
2018-04-30T01:31:08.101Z,33.93
2018-04-30T01:33:35.621Z,35.00
2018-04-30T01:36:03.198Z,42.43
2018-04-30T01:38:30.712Z,35.50
2018-04-30T01:40:58.245Z,44.03
2018-04-30T01:43:25.745Z,52.27
2018-04-30T01:45:53.271Z,56.50
2018-04-30T01:48:20.789Z,48.03
2018-04-30T01:50:48.315Z,55.87
2018-04-30T01:53:15.861Z,55.37
2018-04-30T01:55:45.578Z,58.37
2018-04-30T01:58:13.850Z,56.80
2018-04-30T02:00:41.357Z,59.87
2018-04-30T02:03:08.908Z,59.37
2018-04-30T02:05:37.221Z,62.20
2018-04-30T02:08:04.736Z,79.00
2018-04-30T02:10:32.267Z,73.43
2018-04-30T02:12:59.773Z,65.83
2018-04-30T02:15:27.307Z,72.37
2018-04-30T02:17:54.824Z,80.67
2018-04-30T02:20:22.394Z,90.87
2018-04-30T02:22:50.725Z,100.40
2018-04-30T02:25:18.272Z,103.03
2018-04-30T02:27:45.784Z,120.80
2018-04-30T02:30:13.359Z,137.90
2018-04-30T02:32:40.888Z,73.73
2018-04-30T02:35:08.413Z,59.03
2018-04-30T02:37:35.925Z,60.73
2018-04-30T02:40:03.486Z,69.43
2018-04-30T02:42:30.992Z,61.43
2018-04-30T02:44:58.515Z,72.90
2018-04-30T02:47:26.017Z,65.80
2018-04-30T02:49:53.862Z,65.10
2018-04-30T02:52:21.382Z,65.20
2018-04-30T02:54:49.676Z,83.67
2018-04-30T02:57:17.987Z,77.43
2018-04-30T02:59:45.521Z,80.87
2018-04-30T03:02:13.029Z,78.47
2018-04-30T03:04:40.532Z,60.17
2018-04-30T03:07:08.111Z,72.53
2018-04-30T03:09:35.676Z,49.37
2018-04-30T03:12:03.204Z,34.77
2018-04-30T03:14:30.768Z,28.90
2018-04-30T03:16:58.309Z,30.23
2018-04-30T03:19:25.828Z,28.30
2018-04-30T03:21:53.365Z,31.23
2018-04-30T03:24:21.898Z,31.40
2018-04-30T03:26:49.431Z,26.83
2018-04-30T03:29:16.988Z,32.70
2018-04-30T03:31:44.515Z,32.10
2018-04-30T03:34:12.026Z,30.87
2018-04-30T03:36:39.549Z,31.67
2018-04-30T03:39:07.053Z,37.23
2018-04-30T03:41:34.571Z,39.63
2018-04-30T03:44:02.858Z,38.63
2018-04-30T03:46:31.142Z,37.63
2018-04-30T03:48:59.437Z,32.73
2018-04-30T03:51:27.709Z,40.23
2018-04-30T03:53:55.244Z,38.23
2018-04-30T03:56:22.756Z,39.00
2018-04-30T03:58:51.057Z,39.60
2018-04-30T04:01:31.284Z,35.40
2018-04-30T04:04:10.670Z,45.27
2018-04-30T04:06:53.837Z,39.80
2018-04-30T04:09:21.368Z,46.87
2018-04-30T04:11:48.902Z,43.63
2018-04-30T04:14:16.435Z,53.20
2018-04-30T04:16:44.704Z,50.30
2018-04-30T04:19:12.236Z,41.40
2018-04-30T04:21:39.747Z,45.33
2018-04-30T04:24:08.052Z,45.13
2018-04-30T04:26:36.320Z,50.90
2018-04-30T04:29:03.846Z,45.13
2018-04-30T04:31:31.373Z,44.00
2018-04-30T04:33:59.660Z,41.33
2018-04-30T04:36:27.929Z,43.07
2018-04-30T04:38:55.456Z,37.67
2018-04-30T04:41:23.020Z,38.07
2018-04-30T04:43:50.538Z,38.40
2018-04-30T04:46:18.072Z,39.43
2018-04-30T04:48:45.584Z,36.53
2018-04-30T04:51:13.104Z,39.10
2018-04-30T04:53:40.617Z,37.70
2018-04-30T04:56:08.150Z,42.30
2018-04-30T04:58:35.657Z,37.83
2018-04-30T05:01:03.249Z,30.17
2018-04-30T05:03:30.765Z,29.57
2018-04-30T05:05:58.297Z,27.20
2018-04-30T05:08:25.816Z,18.37
2018-04-30T05:10:53.392Z,19.50
2018-04-30T05:13:21.604Z,14.07
2018-04-30T05:15:49.132Z,12.77
2018-04-30T05:18:16.647Z,13.07
2018-04-30T05:20:44.167Z,11.43
2018-04-30T05:23:11.738Z,9.33
2018-04-30T05:25:39.276Z,7.53
2018-04-30T05:28:06.793Z,6.33
2018-04-30T05:30:34.314Z,7.00
2018-04-30T05:33:01.820Z,6.73
2018-04-30T05:35:30.094Z,4.43
2018-04-30T05:37:58.385Z,4.63
2018-04-30T05:40:26.690Z,4.93
2018-04-30T05:42:54.981Z,6.27
2018-04-30T05:45:23.261Z,4.87
2018-04-30T05:47:51.565Z,4.20
2018-04-30T05:50:19.063Z,6.70
2018-04-30T05:52:46.588Z,4.43
2018-04-30T05:55:15.051Z,7.40
2018-04-30T05:57:43.275Z,3.87
2018-04-30T06:00:11.557Z,6.40
2018-04-30T06:02:39.973Z,4.27
2018-04-30T06:05:07.480Z,11.23
2018-04-30T06:07:34.998Z,4.43
2018-04-30T06:10:03.274Z,3.50
2018-04-30T06:12:31.584Z,5.13
2018-04-30T06:14:59.157Z,14.97
2018-04-30T06:17:26.694Z,5.23
2018-04-30T06:19:54.200Z,2.47
2018-04-30T06:22:21.715Z,2.40
2018-04-30T06:24:49.289Z,3.10
2018-04-30T06:27:17.534Z,2.33
2018-04-30T06:29:45.040Z,2.17
2018-04-30T06:32:12.560Z,6.10
2018-04-30T06:34:40.837Z,1.90
2018-04-30T06:37:09.139Z,3.23
2018-04-30T06:39:37.409Z,2.90
2018-04-30T06:42:04.919Z,3.30
2018-04-30T06:44:32.480Z,1.90
2018-04-30T06:46:59.976Z,3.60
2018-04-30T06:49:27.495Z,2.37
2018-04-30T06:51:54.991Z,4.40
2018-04-30T06:54:23.287Z,2.83
2018-04-30T06:56:50.792Z,2.10
2018-04-30T06:59:18.319Z,3.70
2018-04-30T07:01:46.632Z,4.97
2018-04-30T07:04:14.152Z,6.70
2018-04-30T07:06:41.675Z,3.20
2018-04-30T07:09:09.284Z,5.07
2018-04-30T07:11:36.806Z,4.50
2018-04-30T07:14:04.349Z,3.80
2018-04-30T07:16:31.855Z,7.53
2018-04-30T07:18:59.381Z,4.20
2018-04-30T07:21:26.880Z,6.63
2018-04-30T07:23:55.177Z,2.50
2018-04-30T07:26:22.684Z,4.77
2018-04-30T07:28:50.230Z,3.77
2018-04-30T07:31:17.737Z,2.90
2018-04-30T07:33:45.276Z,2.07
2018-04-30T07:36:12.798Z,3.17
2018-04-30T07:38:40.418Z,1.93
2018-04-30T07:41:07.964Z,3.57
2018-04-30T07:43:36.297Z,2.30
2018-04-30T07:46:03.809Z,1.30
2018-04-30T07:48:31.328Z,4.30
2018-04-30T07:50:58.845Z,1.57
2018-04-30T07:53:26.361Z,1.90
2018-04-30T07:55:53.914Z,2.93
2018-04-30T07:58:22.223Z,2.00
2018-04-30T08:00:49.724Z,1.47
2018-04-30T08:03:17.356Z,2.87
2018-04-30T08:05:45.655Z,2.60
2018-04-30T08:08:13.190Z,1.60
2018-04-30T08:10:40.789Z,2.10
2018-04-30T08:13:08.308Z,6.83
2018-04-30T08:15:35.925Z,7.23
2018-04-30T08:18:04.199Z,3.23
2018-04-30T08:20:32.493Z,2.87
2018-04-30T08:23:00.766Z,3.73
2018-04-30T08:25:28.284Z,2.47
2018-04-30T08:27:55.801Z,4.90
2018-04-30T08:30:24.237Z,2.67
2018-04-30T08:32:51.740Z,3.83
2018-04-30T08:35:19.263Z,5.00
2018-04-30T08:37:47.530Z,2.40
2018-04-30T08:40:15.091Z,4.90
2018-04-30T08:42:42.595Z,5.63
2018-04-30T08:45:10.913Z,2.97
2018-04-30T08:47:38.465Z,1.80
2018-04-30T08:50:05.976Z,2.60
2018-04-30T08:52:33.481Z,2.20
2018-04-30T08:55:00.996Z,3.00
2018-04-30T08:57:28.497Z,2.23
2018-04-30T08:59:56.013Z,1.50
2018-04-30T09:02:24.309Z,1.30
2018-04-30T09:04:52.614Z,3.13
2018-04-30T09:07:20.119Z,2.50
2018-04-30T09:09:47.665Z,2.80
2018-04-30T09:12:15.941Z,2.43
2018-04-30T09:14:43.439Z,1.53
2018-04-30T09:17:10.959Z,2.70
2018-04-30T09:19:39.240Z,1.73
2018-04-30T09:22:07.552Z,1.77
2018-04-30T09:24:35.117Z,1.20
2018-04-30T09:27:03.403Z,2.23
2018-04-30T09:29:31.668Z,3.30
2018-04-30T09:31:59.274Z,3.87
2018-04-30T09:34:26.781Z,2.40
2018-04-30T09:36:54.334Z,2.40
2018-04-30T09:39:21.828Z,4.30
2018-04-30T09:41:49.345Z,1.30
2018-04-30T09:44:17.612Z,1.53
2018-04-30T09:46:45.144Z,1.10
2018-04-30T09:49:12.673Z,3.67
2018-04-30T09:51:40.214Z,1.30
2018-04-30T09:54:07.804Z,1.23
2018-04-30T09:56:35.297Z,2.90
2018-04-30T09:59:03.585Z,1.67
2018-04-30T10:01:31.851Z,1.10
2018-04-30T10:03:59.368Z,1.57
2018-04-30T10:06:26.873Z,3.37
2018-04-30T10:08:54.392Z,3.30
2018-04-30T10:11:22.689Z,2.20
2018-04-30T10:13:50.347Z,3.07
2018-04-30T10:16:18.630Z,3.20
2018-04-30T10:18:47.030Z,2.17
2018-04-30T10:21:15.302Z,3.83
2018-04-30T10:23:42.841Z,1.13
2018-04-30T10:26:10.339Z,2.00
2018-04-30T10:28:37.874Z,2.20
2018-04-30T10:31:05.364Z,1.30
2018-04-30T10:33:32.911Z,1.50
2018-04-30T10:36:00.413Z,1.63
2018-04-30T10:38:29.494Z,1.43
2018-04-30T10:40:56.985Z,5.20
2018-04-30T10:43:24.556Z,1.50
2018-04-30T10:45:52.138Z,2.43
2018-04-30T10:48:19.592Z,1.40
2018-04-30T10:50:47.098Z,2.83
2018-04-30T10:53:14.627Z,3.33
2018-04-30T10:55:42.137Z,2.00
2018-04-30T10:58:09.642Z,4.70
2018-04-30T11:00:37.166Z,2.30
2018-04-30T11:03:04.704Z,5.53
2018-04-30T11:05:32.252Z,2.23
2018-04-30T11:07:59.772Z,3.70
2018-04-30T11:10:27.293Z,1.60
2018-04-30T11:12:54.790Z,3.67
2018-04-30T11:15:22.327Z,2.97
2018-04-30T11:17:50.612Z,3.20
2018-04-30T11:20:18.900Z,1.93
2018-04-30T11:22:47.169Z,1.90
2018-04-30T11:25:14.684Z,1.97
2018-04-30T11:27:42.292Z,3.37
2018-04-30T11:30:09.787Z,1.50
2018-04-30T11:32:37.289Z,4.23
2018-04-30T11:35:04.858Z,2.83
2018-04-30T11:37:32.368Z,2.30
2018-04-30T11:40:00.030Z,1.87
2018-04-30T11:42:27.505Z,1.90
2018-04-30T11:44:55.050Z,5.27
2018-04-30T11:47:22.564Z,3.33
2018-04-30T11:49:50.113Z,1.60
2018-04-30T11:52:17.627Z,2.70
2018-04-30T11:54:45.136Z,13.33
2018-04-30T11:57:13.307Z,5.30
2018-04-30T11:59:40.828Z,3.43
2018-04-30T12:02:08.364Z,1.10
2018-04-30T12:04:35.885Z,7.00
2018-04-30T12:07:03.417Z,2.43
2018-04-30T12:09:30.928Z,1.40
2018-04-30T12:11:58.684Z,4.30
2018-04-30T12:14:26.193Z,2.17
2018-04-30T12:16:54.528Z,1.40
2018-04-30T12:19:22.159Z,1.87
2018-04-30T12:21:50.481Z,3.23
2018-04-30T12:24:18.743Z,1.90
2018-04-30T12:26:47.058Z,3.20
2018-04-30T12:29:14.670Z,2.00
2018-04-30T12:31:42.212Z,2.23
2018-04-30T12:34:09.728Z,4.40
2018-04-30T12:36:37.336Z,1.17
2018-04-30T12:39:05.684Z,1.90
2018-04-30T12:41:33.243Z,1.20
2018-04-30T12:44:00.773Z,1.13
2018-04-30T12:46:28.298Z,1.77
2018-04-30T12:48:55.859Z,1.10
2018-04-30T12:51:23.377Z,4.60
2018-04-30T12:53:50.893Z,1.60
2018-04-30T12:56:18.454Z,1.90
2018-04-30T12:58:45.969Z,1.30
2018-04-30T13:01:14.292Z,1.30
2018-04-30T13:03:41.840Z,1.97
2018-04-30T13:06:10.126Z,2.93
2018-04-30T13:08:37.679Z,1.60
2018-04-30T13:11:05.951Z,1.43
2018-04-30T13:13:33.476Z,2.70
2018-04-30T13:16:01.121Z,1.20
2018-04-30T13:18:28.639Z,1.20
2018-04-30T13:20:56.192Z,4.97
2018-04-30T13:23:24.480Z,1.50
2018-04-30T13:25:52.744Z,1.77
2018-04-30T13:28:20.341Z,1.37
2018-04-30T13:30:48.612Z,1.20
2018-04-30T13:33:16.132Z,1.40
2018-04-30T13:35:43.702Z,3.33
2018-04-30T13:38:11.232Z,1.40
2018-04-30T13:40:38.840Z,1.10
2018-04-30T13:43:06.352Z,1.77
2018-04-30T13:45:33.864Z,2.70
2018-04-30T13:48:02.144Z,2.30
2018-04-30T13:50:30.458Z,5.30
2018-04-30T13:52:57.972Z,5.03
2018-04-30T13:55:25.491Z,1.70
2018-04-30T13:57:53.169Z,14.10
2018-04-30T14:00:20.810Z,0.90
2018-04-30T14:02:48.331Z,2.87
2018-04-30T14:05:15.921Z,1.93
2018-04-30T14:07:43.448Z,1.70
2018-04-30T14:10:11.713Z,3.90
2018-04-30T14:12:39.263Z,4.17
2018-04-30T14:15:06.794Z,2.47
2018-04-30T14:17:34.305Z,5.43
2018-04-30T14:20:01.842Z,1.27
2018-04-30T14:22:29.344Z,2.50
2018-04-30T14:24:56.869Z,6.20
2018-04-30T14:27:24.563Z,3.37
2018-04-30T14:29:52.072Z,4.17
2018-04-30T14:32:19.572Z,3.90
2018-04-30T14:34:47.852Z,1.97
2018-04-30T14:37:15.391Z,1.00
2018-04-30T14:39:42.902Z,2.90
2018-04-30T14:42:11.172Z,2.37
2018-04-30T14:44:38.774Z,1.00
2018-04-30T14:47:06.220Z,1.50
2018-04-30T14:49:33.741Z,1.33
2018-04-30T14:52:01.252Z,2.87
2018-04-30T14:54:28.800Z,1.27
2018-04-30T14:56:56.302Z,1.57
2018-04-30T14:59:23.920Z,1.03
2018-04-30T15:01:51.429Z,6.50
2018-04-30T15:04:18.946Z,1.03
2018-04-30T15:06:47.232Z,1.00
2018-04-30T15:09:15.545Z,1.13
2018-04-30T15:11:43.052Z,4.47
2018-04-30T15:14:10.601Z,0.90
2018-04-30T15:16:38.125Z,5.70
2018-04-30T15:19:06.437Z,1.00
2018-04-30T15:21:35.112Z,2.20
2018-04-30T15:24:03.416Z,1.13
2018-04-30T15:26:31.839Z,1.90
2018-04-30T15:28:59.372Z,1.53
2018-04-30T15:31:27.703Z,1.10
2018-04-30T15:33:55.248Z,2.00
2018-04-30T15:36:22.768Z,1.60
2018-04-30T15:38:50.348Z,1.53
2018-04-30T15:41:17.860Z,1.33
2018-04-30T15:43:46.364Z,1.77
2018-04-30T15:46:13.880Z,1.87
2018-04-30T15:48:41.561Z,6.70
2018-04-30T15:51:09.048Z,1.40
2018-04-30T15:53:36.572Z,3.73
2018-04-30T15:56:04.092Z,2.73
2018-04-30T15:58:32.370Z,1.97
2018-04-30T16:01:00.015Z,2.20
2018-04-30T16:03:27.508Z,1.43
2018-04-30T16:05:55.044Z,2.80
2018-04-30T16:08:22.617Z,4.10
2018-04-30T16:10:50.186Z,1.00
2018-04-30T16:13:17.691Z,11.27
2018-04-30T16:15:45.212Z,1.47
2018-04-30T16:18:12.769Z,0.90
2018-04-30T16:20:40.249Z,1.13
2018-04-30T16:23:07.779Z,1.10
2018-04-30T16:25:35.309Z,1.00
2018-04-30T16:28:02.804Z,2.60
2018-04-30T16:30:30.325Z,1.30
2018-04-30T16:32:58.600Z,1.03
2018-04-30T16:35:26.881Z,2.13
2018-04-30T16:37:54.383Z,2.13
2018-04-30T16:40:21.909Z,1.13
2018-04-30T16:42:49.408Z,1.77
2018-04-30T16:45:17.692Z,2.63
2018-04-30T16:47:45.984Z,2.13
2018-04-30T16:50:14.296Z,1.33
2018-04-30T16:52:41.992Z,2.20
2018-04-30T16:55:09.521Z,2.03
2018-04-30T16:57:37.913Z,1.90
2018-04-30T17:00:06.215Z,2.13
2018-04-30T17:02:34.489Z,2.30
2018-04-30T17:05:02.873Z,1.00
2018-04-30T17:07:30.460Z,0.87
2018-04-30T17:09:58.747Z,4.50
2018-04-30T17:12:27.061Z,2.90
2018-04-30T17:14:54.576Z,1.20
2018-04-30T17:17:22.065Z,2.40
2018-04-30T17:19:49.673Z,2.10
2018-04-30T17:22:17.165Z,1.27
2018-04-30T17:24:44.688Z,4.93
2018-04-30T17:27:12.977Z,1.40
2018-04-30T17:29:41.851Z,1.33
2018-04-30T17:32:10.089Z,3.10
2018-04-30T17:34:37.591Z,1.87
2018-04-30T17:37:05.137Z,1.70
2018-04-30T17:39:32.706Z,2.33
2018-04-30T17:42:00.336Z,1.20
2018-04-30T17:44:27.904Z,1.53
2018-04-30T17:46:55.530Z,2.43
2018-04-30T17:49:23.107Z,1.87
2018-04-30T17:51:50.668Z,1.33
2018-04-30T17:54:18.168Z,0.97
2018-04-30T17:56:45.705Z,4.13
2018-04-30T17:59:13.984Z,2.20
2018-04-30T18:01:42.265Z,2.03
2018-04-30T18:04:10.567Z,4.73
2018-04-30T18:06:38.853Z,3.07
2018-04-30T18:09:07.131Z,3.03
2018-04-30T18:11:35.428Z,1.07
2018-04-30T18:14:03.716Z,19.07
2018-04-30T18:16:32.008Z,2.50
2018-04-30T18:18:59.585Z,4.07
2018-04-30T18:21:27.116Z,3.93
2018-04-30T18:23:54.634Z,3.20
2018-04-30T18:26:22.925Z,3.17
2018-04-30T18:28:50.487Z,1.47
2018-04-30T18:31:18.769Z,1.40
2018-04-30T18:33:47.053Z,1.47
2018-04-30T18:36:14.569Z,1.40
2018-04-30T18:38:42.154Z,2.50
2018-04-30T18:41:10.737Z,1.53
2018-04-30T18:43:38.531Z,2.70
2018-04-30T18:46:06.084Z,1.43
2018-04-30T18:48:33.599Z,1.50
2018-04-30T18:51:01.172Z,2.83
2018-04-30T18:53:28.733Z,1.73
2018-04-30T18:55:56.279Z,6.33
2018-04-30T18:58:23.820Z,7.07
2018-04-30T19:00:52.225Z,3.30
2018-04-30T19:03:20.034Z,4.40
2018-04-30T19:05:47.602Z,3.60
2018-04-30T19:08:15.218Z,18.40
2018-04-30T19:10:43.568Z,2.07
2018-04-30T19:13:11.111Z,1.20
2018-04-30T19:15:39.563Z,1.83
2018-04-30T19:18:07.105Z,0.90
2018-04-30T19:20:34.595Z,2.00
2018-04-30T19:23:02.117Z,6.00
2018-04-30T19:25:29.644Z,2.97
2018-04-30T19:27:57.250Z,1.20
2018-04-30T19:30:25.513Z,1.00
2018-04-30T19:32:53.034Z,3.90
2018-04-30T19:35:20.533Z,1.20
2018-04-30T19:37:48.051Z,0.80
2018-04-30T19:40:16.334Z,1.00
2018-04-30T19:42:44.634Z,1.30
2018-04-30T19:45:12.144Z,1.37
2018-04-30T19:47:39.659Z,2.90
2018-04-30T19:50:07.167Z,1.47
2018-04-30T19:52:34.703Z,4.17
2018-04-30T19:55:02.204Z,1.00
2018-04-30T19:57:29.720Z,1.67
2018-04-30T19:59:57.238Z,1.30
2018-04-30T20:02:24.772Z,1.00
2018-04-30T20:04:52.301Z,3.07
2018-04-30T20:07:19.939Z,2.10
2018-04-30T20:09:48.218Z,1.00
2018-04-30T20:12:15.920Z,5.10
2018-04-30T20:14:43.424Z,2.80
2018-04-30T20:17:10.945Z,4.43
2018-04-30T20:19:39.210Z,2.87
2018-04-30T20:22:06.737Z,1.60
2018-04-30T20:24:34.231Z,1.60
2018-04-30T20:27:01.757Z,1.37
2018-04-30T20:29:29.253Z,4.70
2018-04-30T20:31:56.777Z,4.70
2018-04-30T20:34:24.281Z,3.13
2018-04-30T20:36:51.854Z,1.90
2018-04-30T20:39:19.390Z,1.40
2018-04-30T20:41:46.905Z,1.33
2018-04-30T20:44:14.449Z,1.27
2018-04-30T20:46:42.761Z,1.87
2018-04-30T20:49:10.316Z,1.10
2018-04-30T20:51:38.742Z,1.10
2018-04-30T20:54:06.281Z,1.33
2018-04-30T20:56:34.548Z,2.10
2018-04-30T20:59:02.107Z,5.27
2018-04-30T21:01:29.632Z,2.60
2018-04-30T21:03:57.201Z,2.10
2018-04-30T21:06:24.795Z,1.60
2018-04-30T21:09:04.176Z,1.53
2018-04-30T21:11:31.669Z,1.33
2018-04-30T21:13:59.956Z,1.73
2018-04-30T21:16:28.219Z,2.50
2018-04-30T21:18:55.755Z,1.97
2018-04-30T21:21:23.271Z,2.60
2018-04-30T21:23:50.889Z,4.67
2018-04-30T21:26:18.536Z,4.93
2018-04-30T21:28:46.833Z,3.43
2018-04-30T21:31:15.112Z,2.13
2018-04-30T21:33:43.377Z,1.17
2018-04-30T21:36:10.888Z,1.40
2018-04-30T21:38:39.161Z,1.40
2018-04-30T21:41:07.513Z,1.90
2018-04-30T21:43:35.025Z,1.33
2018-04-30T21:46:02.548Z,1.50
2018-04-30T21:48:30.057Z,3.13
2018-04-30T21:50:57.644Z,1.50
2018-04-30T21:53:25.953Z,2.50
2018-04-30T21:55:53.469Z,2.40
2018-04-30T21:58:20.990Z,1.30
2018-04-30T22:00:48.516Z,1.47
2018-04-30T22:03:16.038Z,1.40
2018-04-30T22:05:43.560Z,1.27
2018-04-30T22:08:11.077Z,1.20
2018-04-30T22:10:38.649Z,1.47
2018-04-30T22:13:06.174Z,1.33
2018-04-30T22:15:33.693Z,1.10
2018-04-30T22:18:01.212Z,1.33
2018-04-30T22:20:28.754Z,1.43
2018-04-30T22:22:56.304Z,1.20
2018-04-30T22:25:23.821Z,1.20
2018-04-30T22:27:51.345Z,1.20
2018-04-30T22:30:18.856Z,3.50
2018-04-30T22:32:46.480Z,2.30
2018-04-30T22:35:14.744Z,1.17
2018-04-30T22:37:42.364Z,1.10
2018-04-30T22:40:09.909Z,1.00
2018-04-30T22:42:37.449Z,1.10
2018-04-30T22:45:04.972Z,3.43
2018-04-30T22:47:32.493Z,1.23
2018-04-30T22:50:00.021Z,1.07
2018-04-30T22:52:27.553Z,1.40
2018-04-30T22:54:55.821Z,1.40
2018-04-30T22:57:23.345Z,1.53
2018-04-30T22:59:50.915Z,4.13
2018-04-30T23:02:18.523Z,2.70
2018-04-30T23:04:46.044Z,1.83
2018-04-30T23:07:14.344Z,1.53
2018-04-30T23:09:41.837Z,1.70
2018-04-30T23:12:09.353Z,1.33
2018-04-30T23:14:36.849Z,1.23
2018-04-30T23:17:04.367Z,1.77
2018-04-30T23:19:31.884Z,1.20
2018-04-30T23:22:00.185Z,1.30
2018-04-30T23:24:27.693Z,1.30
2018-04-30T23:26:55.219Z,1.30
2018-04-30T23:29:23.540Z,2.50
2018-04-30T23:31:51.205Z,1.23
2018-04-30T23:34:18.722Z,1.40
2018-04-30T23:36:46.224Z,1.50
2018-04-30T23:39:14.527Z,6.73
2018-04-30T23:41:42.028Z,2.10
2018-04-30T23:44:09.551Z,1.23
2018-04-30T23:46:37.839Z,1.47
2018-04-30T23:49:06.173Z,1.30
2018-04-30T23:51:33.732Z,1.30
2018-04-30T23:54:01.292Z,1.33
2018-04-30T23:56:28.800Z,2.77
2018-04-30T23:58:56.317Z,2.00
